Time;durP1;ratioP1;P1;durP2;ratioP2;P2;SDS_P1;SDS_P2;PMS_P1;PMS_P2;Temp;Humidity;BMP_temperature;BMP_pressure;BME280_temperature;BME280_humidity;BME280_pressure;Samples;Min_cycle;Max_cycle;Signal;HPM_P1;HPM_P2
2021/09/18 00:00:16;;;;;;;8.85;6.53;;;10.60;99.90;;;;;;4970280;28;20237;-87
2021/09/18 00:02:43;;;;;;;7.22;6.40;;;10.60;99.90;;;;;;4961329;28;20231;-87
2021/09/18 00:05:14;;;;;;;6.97;6.07;;;10.50;99.90;;;;;;4936078;28;20219;-87
2021/09/18 00:07:41;;;;;;;7.60;6.45;;;10.50;99.90;;;;;;4932331;28;20280;-88
2021/09/18 00:10:09;;;;;;;10.43;6.05;;;10.60;99.90;;;;;;4935505;28;20234;-88
2021/09/18 00:12:38;;;;;;;7.80;6.22;;;10.50;99.90;;;;;;4944973;28;20241;-87
2021/09/18 00:15:06;;;;;;;7.18;6.13;;;10.60;99.90;;;;;;4932437;28;20250;-87
2021/09/18 00:17:33;;;;;;;7.47;6.50;;;10.70;99.70;;;;;;4934535;28;20226;-87
2021/09/18 00:20:01;;;;;;;7.25;5.90;;;10.80;99.70;;;;;;4936372;28;20226;-88
2021/09/18 00:22:29;;;;;;;7.80;6.68;;;10.80;99.50;;;;;;4937925;28;20229;-87
2021/09/18 00:24:56;;;;;;;7.05;6.10;;;10.70;99.50;;;;;;4929566;28;20234;-87
2021/09/18 00:27:23;;;;;;;8.45;6.70;;;10.70;99.30;;;;;;4928512;28;20206;-87
2021/09/18 00:29:52;;;;;;;8.35;6.25;;;10.60;99.40;;;;;;4928819;29;20202;-87
2021/09/18 00:32:19;;;;;;;9.45;6.25;;;10.70;99.30;;;;;;4930156;28;20268;-87
2021/09/18 00:34:46;;;;;;;6.18;5.50;;;10.60;99.30;;;;;;4928662;28;20298;-88
2021/09/18 00:37:13;;;;;;;7.25;6.15;;;10.70;99.40;;;;;;4927415;28;20212;-87
2021/09/18 00:39:40;;;;;;;6.75;5.85;;;10.50;99.30;;;;;;4934364;28;20240;-88
2021/09/18 00:42:07;;;;;;;6.45;5.35;;;10.50;99.70;;;;;;4931540;28;20326;-87
2021/09/18 00:44:35;;;;;;;7.18;5.57;;;10.50;99.40;;;;;;4921189;28;20229;-87
2021/09/18 00:47:04;;;;;;;7.53;6.05;;;10.50;99.50;;;;;;4927182;28;20296;-87
2021/09/18 00:49:31;;;;;;;6.38;5.45;;;10.60;99.40;;;;;;4922585;28;20305;-87
2021/09/18 00:51:58;;;;;;;8.35;6.07;;;10.50;99.30;;;;;;4939376;28;20231;-87
2021/09/18 00:54:27;;;;;;;7.10;5.43;;;10.50;99.30;;;;;;4948895;28;20290;-87
2021/09/18 00:56:55;;;;;;;6.32;5.35;;;10.40;99.20;;;;;;4924498;28;20733;-87
2021/09/18 00:59:22;;;;;;;5.80;5.25;;;10.30;99.50;;;;;;4937767;28;20757;-88
2021/09/18 01:01:49;;;;;;;7.40;6.07;;;10.30;99.60;;;;;;4931247;28;20264;-87
2021/09/18 01:04:17;;;;;;;6.72;5.43;;;10.20;99.60;;;;;;4929629;28;20231;-87
2021/09/18 01:06:45;;;;;;;8.93;5.57;;;10.30;99.70;;;;;;4929887;28;20606;-88
2021/09/18 01:09:12;;;;;;;6.20;5.60;;;10.30;99.50;;;;;;4925298;28;20232;-88
2021/09/18 01:11:39;;;;;;;7.47;5.13;;;10.30;99.40;;;;;;4924415;28;20302;-87
2021/09/18 01:14:07;;;;;;;5.97;5.43;;;10.10;99.50;;;;;;4926382;28;20241;-88
2021/09/18 01:16:35;;;;;;;6.75;5.60;;;10.20;99.70;;;;;;4922739;28;20240;-88
2021/09/18 01:19:02;;;;;;;6.03;5.43;;;10.10;99.30;;;;;;4903988;28;20226;-87
2021/09/18 01:21:30;;;;;;;8.75;5.53;;;10.00;99.50;;;;;;4927161;28;20272;-87
2021/09/18 01:24:00;;;;;;;5.80;5.30;;;10.00;99.70;;;;;;4921048;28;20289;-87
2021/09/18 01:26:32;;;;;;;6.93;5.63;;;10.00;99.90;;;;;;4928956;28;20215;-87
2021/09/18 01:29:00;;;;;;;9.77;5.70;;;10.20;99.60;;;;;;4937074;28;20558;-87
2021/09/18 01:31:28;;;;;;;10.55;5.88;;;10.00;99.60;;;;;;4927623;28;20216;-87
2021/09/18 01:33:55;;;;;;;6.68;4.90;;;10.00;99.60;;;;;;4929104;28;20228;-87
2021/09/18 01:36:22;;;;;;;6.13;4.80;;;9.90;99.90;;;;;;4920760;28;20266;-88
2021/09/18 01:38:49;;;;;;;6.22;5.20;;;9.80;99.90;;;;;;4919592;28;20632;-88
2021/09/18 01:41:18;;;;;;;5.88;5.10;;;9.90;99.90;;;;;;4943409;28;20204;-87
2021/09/18 01:43:45;;;;;;;5.40;4.90;;;10.00;99.70;;;;;;4923735;28;20236;-87
2021/09/18 01:46:11;;;;;;;6.57;5.07;;;10.10;99.70;;;;;;4919996;28;20293;-87
2021/09/18 01:48:40;;;;;;;6.20;4.88;;;10.20;99.30;;;;;;4936853;28;20314;-87
2021/09/18 01:51:11;;;;;;;7.70;4.65;;;10.20;99.00;;;;;;4926026;28;20267;-87
2021/09/18 01:53:38;;;;;;;6.18;4.80;;;10.10;98.90;;;;;;4915268;28;20290;-87
2021/09/18 01:56:06;;;;;;;4.95;4.45;;;10.10;98.90;;;;;;4919837;28;20238;-87
2021/09/18 01:58:34;;;;;;;5.43;4.93;;;10.10;98.90;;;;;;4926152;28;20237;-87
2021/09/18 02:01:03;;;;;;;6.07;5.07;;;10.10;98.90;;;;;;4922767;28;20294;-87
2021/09/18 02:03:30;;;;;;;5.15;4.65;;;10.10;98.90;;;;;;4925224;28;20257;-87
2021/09/18 02:05:57;;;;;;;5.38;4.88;;;10.10;98.80;;;;;;4932462;28;20266;-87
2021/09/18 02:08:24;;;;;;;5.70;4.80;;;9.90;99.10;;;;;;4923008;28;20313;-87
2021/09/18 02:10:53;;;;;;;5.55;4.63;;;9.80;99.60;;;;;;4919157;28;20210;-87
2021/09/18 02:13:21;;;;;;;5.53;4.93;;;9.80;99.90;;;;;;4916522;28;20242;-87
2021/09/18 02:15:50;;;;;;;5.53;4.97;;;9.90;99.90;;;;;;4930831;28;20211;-87
2021/09/18 02:18:18;;;;;;;6.47;4.45;;;9.90;99.60;;;;;;4920093;28;20237;-88
2021/09/18 02:20:46;;;;;;;6.68;4.85;;;9.90;99.50;;;;;;4924486;28;20202;-87
2021/09/18 02:23:14;;;;;;;5.40;4.85;;;9.80;99.60;;;;;;4952990;28;20248;-87
2021/09/18 02:25:41;;;;;;;6.35;4.60;;;9.70;99.90;;;;;;4932993;28;20203;-87
2021/09/18 02:28:08;;;;;;;6.93;4.50;;;9.70;99.80;;;;;;4931985;28;20301;-87
2021/09/18 02:30:37;;;;;;;7.72;4.40;;;9.60;99.90;;;;;;4926564;28;20477;-87
2021/09/18 02:33:07;;;;;;;5.00;4.50;;;9.70;99.90;;;;;;4930018;28;20241;-87
2021/09/18 02:35:35;;;;;;;6.05;4.80;;;9.70;99.60;;;;;;4946173;28;20278;-87
2021/09/18 02:38:04;;;;;;;4.88;4.45;;;9.70;99.90;;;;;;4929350;28;20257;-88
2021/09/18 02:40:32;;;;;;;4.75;4.35;;;9.70;99.70;;;;;;4924201;28;20222;-87
2021/09/18 02:43:01;;;;;;;5.15;4.25;;;9.80;99.60;;;;;;4925984;28;20230;-87
2021/09/18 02:45:28;;;;;;;4.18;3.83;;;9.70;99.40;;;;;;4928482;28;20296;-87
2021/09/18 02:47:56;;;;;;;4.72;4.32;;;9.60;99.50;;;;;;4931642;28;20238;-87
2021/09/18 02:50:26;;;;;;;4.55;4.05;;;9.50;99.70;;;;;;4929957;28;20270;-87
2021/09/18 02:52:54;;;;;;;5.30;4.38;;;9.50;99.90;;;;;;4932438;28;20570;-87
2021/09/18 02:55:21;;;;;;;5.53;4.25;;;9.60;99.80;;;;;;4928658;28;20685;-88
2021/09/18 02:57:47;;;;;;;4.40;4.00;;;9.70;99.70;;;;;;4927133;28;20229;-87
2021/09/18 03:00:16;;;;;;;5.93;4.20;;;9.70;99.60;;;;;;4944919;28;20565;-88
2021/09/18 03:02:43;;;;;;;6.90;4.40;;;9.60;99.50;;;;;;4929615;28;20328;-88
2021/09/18 03:05:11;;;;;;;4.60;4.20;;;9.60;99.60;;;;;;4934847;28;20210;-88
2021/09/18 03:07:39;;;;;;;6.57;4.25;;;9.60;99.60;;;;;;4938376;28;20198;-87
2021/09/18 03:10:08;;;;;;;7.13;4.05;;;9.60;99.30;;;;;;4931204;29;20206;-87
2021/09/18 03:12:35;;;;;;;4.72;4.30;;;9.60;99.50;;;;;;4921392;28;20230;-87
2021/09/18 03:15:03;;;;;;;4.35;3.95;;;9.60;99.40;;;;;;4916679;28;20234;-87
2021/09/18 03:17:30;;;;;;;4.20;3.72;;;9.60;99.50;;;;;;4923466;28;20701;-87
2021/09/18 03:19:57;;;;;;;5.38;4.10;;;9.60;99.80;;;;;;4925231;28;20301;-88
2021/09/18 03:22:24;;;;;;;4.63;4.22;;;9.70;99.70;;;;;;4926656;28;20222;-88
2021/09/18 03:24:53;;;;;;;6.70;4.05;;;9.60;99.50;;;;;;4925120;28;20782;-87
2021/09/18 03:27:20;;;;;;;4.60;3.83;;;9.50;99.70;;;;;;4934187;28;20207;-88
2021/09/18 03:29:47;;;;;;;4.22;3.80;;;9.50;99.80;;;;;;4922084;28;20661;-87
2021/09/18 03:32:14;;;;;;;4.18;3.78;;;9.50;99.80;;;;;;4928172;28;20212;-87
2021/09/18 03:34:41;;;;;;;4.88;3.55;;;9.50;99.70;;;;;;4913589;28;20241;-87
2021/09/18 03:37:09;;;;;;;3.78;3.40;;;9.40;99.60;;;;;;4926822;28;20541;-87
2021/09/18 03:39:36;;;;;;;4.97;4.00;;;9.40;99.70;;;;;;4920687;28;20265;-88
2021/09/18 03:42:05;;;;;;;4.07;3.78;;;9.30;99.70;;;;;;4950417;28;20641;-87
2021/09/18 03:44:32;;;;;;;4.60;3.95;;;9.30;99.90;;;;;;4926972;28;20254;-87
2021/09/18 03:46:59;;;;;;;5.90;3.50;;;9.40;99.90;;;;;;4930892;28;20273;-88
2021/09/18 03:49:26;;;;;;;4.40;3.42;;;9.40;99.90;;;;;;4932684;28;20271;-88
2021/09/18 03:51:53;;;;;;;3.47;3.17;;;9.50;99.70;;;;;;4945341;28;20579;-88
2021/09/18 03:54:20;;;;;;;4.57;3.47;;;9.50;99.40;;;;;;4939972;28;20230;-87
2021/09/18 03:56:47;;;;;;;6.65;3.60;;;9.40;99.50;;;;;;4940484;28;20735;-87
2021/09/18 03:59:16;;;;;;;4.03;3.63;;;9.50;99.40;;;;;;4966321;28;20244;-88
2021/09/18 04:01:43;;;;;;;3.90;3.60;;;9.40;99.40;;;;;;4961340;28;20195;-88
2021/09/18 04:04:11;;;;;;;5.15;3.60;;;9.20;99.40;;;;;;4920795;28;20231;-87
2021/09/18 04:06:38;;;;;;;4.13;3.67;;;9.10;99.70;;;;;;4973947;28;20706;-87
2021/09/18 04:09:04;;;;;;;3.83;3.53;;;9.20;99.90;;;;;;4938281;28;20744;-88
2021/09/18 04:11:31;;;;;;;4.30;3.50;;;9.30;99.90;;;;;;4971223;28;20216;-88
2021/09/18 04:13:58;;;;;;;4.28;3.53;;;9.20;99.60;;;;;;4928401;28;20761;-87
2021/09/18 04:16:27;;;;;;;3.40;3.10;;;9.10;99.80;;;;;;4919861;28;20217;-88
2021/09/18 04:18:54;;;;;;;4.18;3.75;;;9.20;99.80;;;;;;4925989;28;20238;-88
2021/09/18 04:21:21;;;;;;;4.55;3.67;;;9.30;99.60;;;;;;4926359;28;20203;-88
2021/09/18 04:23:48;;;;;;;3.67;3.20;;;9.30;99.60;;;;;;4962565;28;20242;-87
2021/09/18 04:26:15;;;;;;;3.75;3.45;;;9.40;99.50;;;;;;4941008;28;20231;-88
2021/09/18 04:28:43;;;;;;;5.60;3.95;;;9.30;99.30;;;;;;4925504;28;20652;-87
2021/09/18 04:31:12;;;;;;;3.67;3.38;;;9.20;99.30;;;;;;4924913;28;20221;-88
2021/09/18 04:33:40;;;;;;;3.72;3.28;;;9.20;99.40;;;;;;4918053;28;20663;-87
2021/09/18 04:36:07;;;;;;;4.13;3.72;;;9.10;99.60;;;;;;4915363;28;20889;-87
2021/09/18 04:38:34;;;;;;;4.43;3.58;;;9.20;99.60;;;;;;4920209;28;20329;-88
2021/09/18 04:41:01;;;;;;;5.25;3.75;;;9.10;99.60;;;;;;4913480;28;20294;-88
2021/09/18 04:43:28;;;;;;;4.05;3.63;;;9.00;99.70;;;;;;4918832;28;20230;-87
2021/09/18 04:45:55;;;;;;;3.70;3.40;;;9.00;99.90;;;;;;4922720;28;20237;-87
2021/09/18 04:48:22;;;;;;;4.18;3.38;;;9.10;99.90;;;;;;4938336;28;20231;-87
2021/09/18 04:50:57;;;;;;;3.70;3.40;;;9.00;99.60;;;;;;4956402;28;20203;-87
2021/09/18 04:53:26;;;;;;;4.90;3.78;;;9.00;99.80;;;;;;4957667;28;20696;-87
2021/09/18 04:55:54;;;;;;;6.60;3.45;;;9.10;99.90;;;;;;4959514;28;20248;-87
2021/09/18 04:58:21;;;;;;;4.35;3.40;;;9.10;99.70;;;;;;4920193;28;20241;-87
2021/09/18 05:00:48;;;;;;;3.55;3.25;;;9.00;99.90;;;;;;4924343;28;20673;-88
2021/09/18 05:03:15;;;;;;;3.97;3.58;;;9.00;99.90;;;;;;4917685;28;20231;-87
2021/09/18 05:05:43;;;;;;;3.58;3.28;;;9.10;99.90;;;;;;4968265;28;20206;-87
2021/09/18 05:08:12;;;;;;;6.28;3.28;;;9.20;99.80;;;;;;4976746;28;20694;-87
2021/09/18 05:10:39;;;;;;;3.72;3.30;;;9.20;99.50;;;;;;4933991;28;20256;-88
2021/09/18 05:13:06;;;;;;;3.35;3.05;;;9.20;99.30;;;;;;4932820;28;20242;-87
2021/09/18 05:15:33;;;;;;;5.30;3.28;;;9.20;99.20;;;;;;4919861;28;20309;-88
2021/09/18 05:18:01;;;;;;;6.50;3.72;;;9.20;99.40;;;;;;4930389;28;20671;-88
2021/09/18 05:20:27;;;;;;;4.88;3.40;;;9.30;99.30;;;;;;4912640;28;20208;-88
2021/09/18 05:22:55;;;;;;;4.05;3.50;;;9.30;99.20;;;;;;4935602;28;20234;-88
2021/09/18 05:25:23;;;;;;;3.90;3.55;;;9.30;99.40;;;;;;4918045;28;20211;-88
2021/09/18 05:27:50;;;;;;;4.03;3.38;;;9.30;99.40;;;;;;4921761;28;20241;-88
2021/09/18 05:30:17;;;;;;;4.00;3.60;;;9.30;99.50;;;;;;4926740;28;20726;-88
2021/09/18 05:32:44;;;;;;;4.68;3.72;;;9.20;99.40;;;;;;4914161;28;20233;-87
2021/09/18 05:35:11;;;;;;;3.80;3.45;;;9.20;99.60;;;;;;4916097;28;20238;-88
2021/09/18 05:37:38;;;;;;;4.63;3.80;;;9.20;99.60;;;;;;4917922;28;20230;-87
2021/09/18 05:40:06;;;;;;;4.18;3.67;;;9.20;99.70;;;;;;4919312;28;20209;-87
2021/09/18 05:42:36;;;;;;;5.25;4.03;;;9.30;99.70;;;;;;4919850;28;20221;-88
2021/09/18 05:45:04;;;;;;;4.18;3.60;;;9.40;99.70;;;;;;4924258;28;20206;-87
2021/09/18 05:47:31;;;;;;;4.90;3.60;;;9.30;99.60;;;;;;4927196;28;20206;-87
2021/09/18 05:49:58;;;;;;;5.88;3.70;;;9.40;99.60;;;;;;4929653;28;20207;-87
2021/09/18 05:52:25;;;;;;;4.70;4.20;;;9.50;99.80;;;;;;4931854;28;20213;-87
2021/09/18 05:54:52;;;;;;;6.20;4.03;;;9.60;99.80;;;;;;4962231;28;20571;-87
2021/09/18 05:57:20;;;;;;;5.18;4.03;;;9.60;99.90;;;;;;4953877;28;20318;-88
2021/09/18 05:59:48;;;;;;;8.75;5.15;;;9.70;99.90;;;;;;4944011;28;20230;-87
2021/09/18 06:02:15;;;;;;;5.53;4.50;;;9.70;99.80;;;;;;4926760;28;20205;-87
2021/09/18 06:04:42;;;;;;;5.47;4.82;;;9.70;99.80;;;;;;4945810;28;20776;-87
2021/09/18 06:07:09;;;;;;;6.68;5.00;;;9.80;99.90;;;;;;4940037;28;20210;-87
2021/09/18 06:09:37;;;;;;;5.22;4.65;;;10.00;99.60;;;;;;4938469;28;20250;-88
2021/09/18 06:12:04;;;;;;;5.55;4.80;;;10.20;99.60;;;;;;4925271;28;20681;-88
2021/09/18 06:14:31;;;;;;;5.65;4.90;;;10.30;99.50;;;;;;4926000;28;20230;-88
2021/09/18 06:17:00;;;;;;;6.45;4.55;;;10.40;99.40;;;;;;4952774;28;20293;-87
2021/09/18 06:19:28;;;;;;;6.55;4.63;;;10.50;99.40;;;;;;4932456;28;20252;-87
2021/09/18 06:21:56;;;;;;;5.97;4.55;;;10.60;99.40;;;;;;4933303;28;20646;-87
2021/09/18 06:24:23;;;;;;;6.25;4.93;;;10.70;99.50;;;;;;4933793;28;20239;-87
2021/09/18 06:26:50;;;;;;;5.07;4.57;;;10.60;99.50;;;;;;4928777;28;20235;-87
2021/09/18 06:29:17;;;;;;;6.28;4.97;;;10.70;99.70;;;;;;4958182;28;20672;-87
2021/09/18 06:31:44;;;;;;;6.47;4.63;;;10.80;99.80;;;;;;4932964;29;20203;-87
2021/09/18 06:34:13;;;;;;;6.18;5.00;;;10.90;99.70;;;;;;4927185;28;20241;-87
2021/09/18 06:36:40;;;;;;;6.95;5.35;;;11.00;99.70;;;;;;4952330;28;20290;-87
2021/09/18 06:39:08;;;;;;;7.32;5.13;;;11.00;99.80;;;;;;4942028;28;20266;-88
2021/09/18 06:41:35;;;;;;;5.43;4.50;;;11.10;99.80;;;;;;4925083;28;20415;-88
2021/09/18 06:44:02;;;;;;;5.50;4.57;;;11.20;99.90;;;;;;4907401;28;20317;-87
2021/09/18 06:46:30;;;;;;;7.50;4.80;;;11.30;99.80;;;;;;4955037;28;20229;-87
2021/09/18 06:48:57;;;;;;;5.80;5.07;;;11.30;99.80;;;;;;4927451;28;20227;-87
2021/09/18 06:51:25;;;;;;;10.52;5.05;;;11.40;99.90;;;;;;4922857;28;20305;-88
2021/09/18 06:53:53;;;;;;;7.97;4.55;;;11.50;99.90;;;;;;4931470;28;20286;-87
2021/09/18 06:56:20;;;;;;;7.30;5.22;;;11.60;99.90;;;;;;4941611;28;20290;-88
2021/09/18 06:58:47;;;;;;;8.32;5.25;;;11.60;99.90;;;;;;4934452;28;20241;-87
2021/09/18 07:01:16;;;;;;;7.68;6.40;;;11.70;99.90;;;;;;4931830;28;20211;-88
2021/09/18 07:03:43;;;;;;;9.45;5.53;;;11.80;99.90;;;;;;4930638;28;20230;-88
2021/09/18 07:06:10;;;;;;;8.30;6.47;;;11.90;99.90;;;;;;4935761;28;20313;-88
2021/09/18 07:09:01;;;;;;;9.95;6.80;;;12.00;99.90;;;;;;4946050;28;20310;-89
2021/09/18 07:11:52;;;;;;;11.65;6.45;;;12.10;99.90;;;;;;4931943;28;20241;-88
2021/09/18 07:14:22;;;;;;;12.20;6.00;;;12.20;99.80;;;;;;4916622;28;20246;-88
2021/09/18 07:17:04;;;;;;;6.63;5.47;;;12.30;99.80;;;;;;4920830;28;20230;-88
2021/09/18 07:20:08;;;;;;;7.30;6.57;;;12.40;99.80;;;;;;4933000;28;20313;-89
2021/09/18 07:25:32;;;;;;;10.07;6.70;;;12.60;99.20;;;;;;4923834;28;20226;-89
2021/09/18 07:27:59;;;;;;;8.55;7.70;;;12.70;99.00;;;;;;4927999;28;20261;-88
2021/09/18 07:33:39;;;;;;;15.15;11.60;;;13.00;96.40;;;;;;4911918;28;20640;-88
2021/09/18 07:36:06;;;;;;;8.65;7.75;;;13.20;95.60;;;;;;4926609;28;20214;-88
2021/09/18 07:38:33;;;;;;;8.63;7.70;;;13.30;95.70;;;;;;4935040;28;20364;-87
2021/09/18 07:41:02;;;;;;;7.70;6.63;;;13.40;95.00;;;;;;4929366;28;20357;-88
2021/09/18 07:43:29;;;;;;;8.00;7.20;;;13.50;95.00;;;;;;4926385;28;20277;-88
2021/09/18 07:45:57;;;;;;;8.43;7.40;;;13.70;94.70;;;;;;4966427;28;20275;-88
2021/09/18 07:48:24;;;;;;;8.50;6.90;;;13.90;94.00;;;;;;4930963;28;20237;-88
2021/09/18 07:50:51;;;;;;;8.00;7.25;;;14.00;93.10;;;;;;4918424;28;20302;-88
2021/09/18 07:53:18;;;;;;;8.80;7.15;;;14.10;93.20;;;;;;4921966;28;20291;-87
2021/09/18 07:55:45;;;;;;;8.15;7.38;;;14.10;92.80;;;;;;4924182;28;20267;-91
2021/09/18 07:58:15;;;;;;;7.47;6.65;;;14.20;92.50;;;;;;4930286;28;20227;-87
2021/09/18 08:00:43;;;;;;;8.57;7.20;;;14.30;93.00;;;;;;4897780;28;20294;-88
2021/09/18 08:03:10;;;;;;;7.95;7.07;;;14.40;92.10;;;;;;4939407;28;20316;-88
2021/09/18 08:05:37;;;;;;;8.55;7.43;;;14.40;92.20;;;;;;4906449;28;20671;-88
2021/09/18 08:08:05;;;;;;;7.35;6.30;;;14.50;92.60;;;;;;4911305;28;20235;-88
2021/09/18 08:10:34;;;;;;;7.70;6.90;;;15.30;91.30;;;;;;4911336;28;20251;-90
2021/09/18 08:13:01;;;;;;;8.63;6.40;;;15.50;85.50;;;;;;4908253;28;20246;-88
2021/09/18 08:15:30;;;;;;;7.80;6.50;;;15.50;87.90;;;;;;4890269;28;20214;-88
2021/09/18 08:17:57;;;;;;;6.95;6.25;;;15.70;83.30;;;;;;4904411;28;20237;-88
2021/09/18 08:20:24;;;;;;;7.05;6.35;;;15.70;81.60;;;;;;4928629;28;20563;-88
2021/09/18 08:22:52;;;;;;;6.60;6.00;;;15.60;82.80;;;;;;4909410;28;20254;-87
2021/09/18 08:25:19;;;;;;;6.22;5.63;;;15.60;81.70;;;;;;4924129;28;20292;-87
2021/09/18 08:27:46;;;;;;;9.25;6.07;;;15.70;81.80;;;;;;4913277;28;20575;-89
2021/09/18 08:30:15;;;;;;;6.72;5.45;;;15.60;80.90;;;;;;4908665;28;20200;-89
2021/09/18 08:32:43;;;;;;;6.40;5.80;;;15.70;81.80;;;;;;4921426;28;20243;-91
2021/09/18 08:35:12;;;;;;;8.18;5.75;;;15.70;82.30;;;;;;4898164;28;20211;-89
2021/09/18 08:37:39;;;;;;;8.05;6.60;;;15.70;80.90;;;;;;4910772;28;20217;-89
2021/09/18 08:40:08;;;;;;;6.38;5.78;;;15.80;80.50;;;;;;4908830;28;20226;-89
2021/09/18 08:42:35;;;;;;;7.70;6.53;;;15.80;77.80;;;;;;4923192;28;20202;-91
2021/09/18 08:45:03;;;;;;;6.35;5.40;;;15.90;79.40;;;;;;4921225;29;20240;-90
2021/09/18 08:47:31;;;;;;;14.45;12.48;;;16.00;78.00;;;;;;4918650;28;20230;-91
2021/09/18 08:50:00;;;;;;;11.82;10.63;;;16.20;79.40;;;;;;4905707;28;20221;-89
2021/09/18 08:52:27;;;;;;;7.00;6.30;;;16.40;78.30;;;;;;4920251;28;20210;-90
2021/09/18 08:54:54;;;;;;;11.23;10.00;;;16.80;76.40;;;;;;4932239;28;20290;-88
2021/09/18 08:57:21;;;;;;;7.20;6.13;;;17.90;63.20;;;;;;4930000;28;20222;-89
2021/09/18 08:59:48;;;;;;;5.60;5.03;;;19.50;53.90;;;;;;4913163;28;20207;-90
2021/09/18 09:02:17;;;;;;;6.28;5.70;;;20.30;44.10;;;;;;4918159;28;20649;-90
2021/09/18 09:04:45;;;;;;;5.90;5.05;;;20.60;44.70;;;;;;4916899;28;20303;-87
2021/09/18 09:07:16;;;;;;;11.77;10.63;;;20.40;42.30;;;;;;4908262;28;20237;-87
2021/09/18 09:09:54;;;;;;;11.75;10.68;;;20.10;44.30;;;;;;4916079;28;20226;-86
2021/09/18 09:12:28;;;;;;;7.95;7.25;;;20.20;46.00;;;;;;4905221;28;20721;-88
2021/09/18 09:14:56;;;;;;;7.97;4.78;;;19.90;46.80;;;;;;4931582;28;20617;-92
2021/09/18 09:17:25;;;;;;;6.30;5.30;;;19.80;47.90;;;;;;5019926;28;20289;-88
2021/09/18 09:19:52;;;;;;;5.53;5.03;;;19.60;47.60;;;;;;5019399;28;20195;-88
2021/09/18 09:22:54;;;;;;;7.47;6.78;;;19.80;47.50;;;;;;4917739;28;20286;-89
2021/09/18 09:25:27;;;;;;;4.05;3.67;;;21.20;41.30;;;;;;4930618;28;20224;-88
2021/09/18 09:27:55;;;;;;;4.03;3.30;;;22.50;36.90;;;;;;4951000;28;20324;-88
2021/09/18 09:30:30;;;;;;;3.97;3.58;;;23.70;31.40;;;;;;4939245;28;20198;-88
2021/09/18 09:33:08;;;;;;;4.22;3.83;;;24.80;26.70;;;;;;4926986;28;20692;-84
2021/09/18 09:49:19;;;;;;;4.50;4.10;;;29.80;16.50;;;;;;4919246;28;20252;-89
2021/09/18 09:52:23;;;;;;;3.83;3.42;;;30.20;16.50;;;;;;4918200;29;20201;-89
2021/09/18 10:05:25;;;;;;;3.40;3.10;;;32.00;13.20;;;;;;4917895;29;20210;-92
2021/09/18 10:11:57;;;;;;;3.40;3.10;;;31.70;14.20;;;;;;4919450;29;20224;-91
2021/09/18 10:32:46;;;;;;;3.90;3.42;;;30.80;14.70;;;;;;5736971;23;20222;-89
2021/09/18 10:35:15;;;;;;;5.65;3.85;;;30.50;15.10;;;;;;5039779;28;20202;-91
2021/09/18 10:37:42;;;;;;;4.82;4.43;;;29.90;15.00;;;;;;5028048;28;20226;-91
2021/09/18 10:40:11;;;;;;;4.35;3.80;;;28.80;16.00;;;;;;5030747;28;20190;-91
2021/09/18 10:42:42;;;;;;;4.30;4.00;;;29.20;16.20;;;;;;5033555;28;20202;-90
2021/09/18 10:45:11;;;;;;;3.75;3.45;;;29.30;15.10;;;;;;5035867;28;20224;-89
2021/09/18 10:47:41;;;;;;;4.63;4.00;;;30.00;16.60;;;;;;5040474;28;20194;-90
2021/09/18 10:53:28;;;;;;;4.00;3.60;;;28.90;16.10;;;;;;5033991;28;20289;-92
2021/09/18 10:55:56;;;;;;;4.85;4.47;;;28.50;16.10;;;;;;5034454;28;20202;-89
2021/09/18 10:58:24;;;;;;;4.30;3.90;;;27.80;15.50;;;;;;5031747;28;20252;-90
2021/09/18 11:00:55;;;;;;;4.53;4.13;;;27.20;17.80;;;;;;5028841;28;20281;-89
2021/09/18 11:03:44;;;;;;;5.43;5.03;;;26.80;19.70;;;;;;5031767;28;20223;-90
2021/09/18 11:06:36;;;;;;;4.47;4.07;;;26.10;23.40;;;;;;5031922;28;20211;-89
2021/09/18 11:09:04;;;;;;;15.07;13.68;;;25.50;20.80;;;;;;5036659;28;20226;-92
2021/09/18 11:11:31;;;;;;;2.85;2.65;;;25.40;21.80;;;;;;5033914;28;20211;-88
2021/09/18 11:14:01;;;;;;;4.55;3.97;;;25.00;20.40;;;;;;5030180;28;20226;-89
2021/09/18 11:16:32;;;;;;;3.88;2.70;;;24.10;20.70;;;;;;5035724;28;20266;-89
2021/09/18 11:19:08;;;;;;;3.20;2.22;;;23.50;21.60;;;;;;5028641;28;20246;-89
2021/09/18 11:21:37;;;;;;;2.35;2.15;;;22.90;22.30;;;;;;5028147;28;20187;-91
2021/09/18 11:24:21;;;;;;;2.85;2.05;;;22.30;24.10;;;;;;5029581;28;20413;-91
2021/09/18 11:26:49;;;;;;;2.10;2.00;;;21.90;25.70;;;;;;5032682;28;20221;-92
2021/09/18 11:29:27;;;;;;;2.17;1.90;;;21.30;24.70;;;;;;5018437;28;20233;-91
2021/09/18 11:32:21;;;;;;;2.22;2.03;;;21.10;28.40;;;;;;5037166;28;20286;-91
2021/09/18 11:34:52;;;;;;;2.60;2.00;;;20.80;27.90;;;;;;5006907;28;20238;-91
2021/09/18 11:37:25;;;;;;;3.50;2.88;;;20.70;28.40;;;;;;5033228;28;20265;-91
2021/09/18 11:39:55;;;;;;;2.80;2.60;;;20.90;25.80;;;;;;5031015;28;20218;-91
2021/09/18 11:42:34;;;;;;;2.58;2.38;;;21.10;26.80;;;;;;5033883;28;20273;-91
2021/09/18 11:45:05;;;;;;;2.65;2.30;;;21.30;27.00;;;;;;5036895;28;20232;-91
2021/09/18 11:50:24;;;;;;;4.10;2.80;;;21.70;25.70;;;;;;5036827;28;20198;-92
2021/09/18 11:52:53;;;;;;;4.53;3.72;;;21.50;23.80;;;;;;5032011;28;20250;-92
2021/09/18 11:55:38;;;;;;;5.68;4.97;;;21.60;27.40;;;;;;5031000;28;20190;-91
2021/09/18 11:58:23;;;;;;;3.20;2.90;;;21.00;25.20;;;;;;5030585;28;20221;-91
2021/09/18 12:00:52;;;;;;;2.95;2.63;;;21.20;25.80;;;;;;5019784;28;20209;-91
2021/09/18 12:03:25;;;;;;;4.78;2.67;;;21.40;28.00;;;;;;5028864;28;20272;-91
2021/09/18 12:08:37;;;;;;;2.95;2.75;;;21.50;25.90;;;;;;5033323;28;20292;-91
2021/09/18 12:11:10;;;;;;;3.03;2.25;;;21.70;26.60;;;;;;5030080;28;20238;-91
2021/09/18 12:13:39;;;;;;;3.03;2.70;;;21.60;24.90;;;;;;5034219;28;20727;-91
2021/09/18 12:16:07;;;;;;;2.22;2.03;;;21.20;25.80;;;;;;5042811;28;20266;-91
2021/09/18 12:18:36;;;;;;;2.55;2.20;;;21.00;27.10;;;;;;5032700;28;20306;-91
2021/09/18 12:23:49;;;;;;;2.80;2.60;;;21.10;28.30;;;;;;5036163;28;20252;-92
2021/09/18 12:26:17;;;;;;;2.55;2.17;;;21.00;27.40;;;;;;5046297;28;20262;-91
2021/09/18 12:28:44;;;;;;;2.30;2.10;;;20.70;27.20;;;;;;5039725;28;20244;-91
2021/09/18 12:31:16;;;;;;;2.22;2.03;;;20.70;27.60;;;;;;5037222;28;20190;-92
2021/09/18 12:33:43;;;;;;;2.25;2.05;;;20.80;29.30;;;;;;5029278;28;20225;-91
2021/09/18 12:36:13;;;;;;;2.50;2.20;;;20.70;28.30;;;;;;5036570;28;20289;-92
2021/09/18 12:38:41;;;;;;;2.20;2.00;;;20.70;27.70;;;;;;5017306;28;20229;-90
2021/09/18 12:41:20;;;;;;;2.67;2.47;;;20.70;30.00;;;;;;5045689;28;20285;-90
2021/09/18 12:43:55;;;;;;;2.35;2.15;;;20.60;29.40;;;;;;5035504;28;20764;-93
2021/09/18 12:46:24;;;;;;;4.63;2.45;;;20.60;29.00;;;;;;5036981;28;20273;-90
2021/09/18 12:48:57;;;;;;;2.47;2.05;;;20.30;29.50;;;;;;5018637;28;20226;-91
2021/09/18 12:54:15;;;;;;;2.45;2.10;;;20.50;28.30;;;;;;5034218;28;20218;-92
2021/09/18 12:56:42;;;;;;;4.53;2.10;;;20.70;27.70;;;;;;5034511;28;20284;-93
2021/09/18 12:59:15;;;;;;;2.40;2.20;;;20.80;26.10;;;;;;5035192;28;20250;-90
2021/09/18 13:01:44;;;;;;;4.00;2.40;;;21.00;26.70;;;;;;5036224;28;20234;-92
2021/09/18 13:04:13;;;;;;;4.95;2.40;;;21.10;25.00;;;;;;5034228;28;20226;-92
2021/09/18 13:06:54;;;;;;;2.22;2.05;;;21.20;25.40;;;;;;5033828;28;20226;-92
2021/09/18 13:09:24;;;;;;;2.65;2.10;;;21.30;26.60;;;;;;5036152;28;20253;-91
2021/09/18 13:11:53;;;;;;;2.15;1.95;;;21.30;27.40;;;;;;5035370;28;20284;-92
2021/09/18 13:14:21;;;;;;;3.28;2.30;;;21.10;28.20;;;;;;5031735;28;20245;-92
2021/09/18 13:16:58;;;;;;;2.17;1.98;;;21.10;27.20;;;;;;5033727;28;20216;-92
2021/09/18 13:19:27;;;;;;;2.17;2.03;;;21.00;28.00;;;;;;5032968;28;20225;-92
2021/09/18 13:24:36;;;;;;;2.20;1.98;;;21.00;26.60;;;;;;5044473;28;20226;-92
2021/09/18 13:27:04;;;;;;;2.35;2.05;;;20.80;27.50;;;;;;5038229;28;20202;-92
2021/09/18 13:29:34;;;;;;;4.40;2.30;;;20.70;27.00;;;;;;5032090;28;20241;-91
2021/09/18 13:34:42;;;;;;;2.95;2.03;;;20.60;28.80;;;;;;5038997;28;20780;-91
2021/09/18 13:39:57;;;;;;;2.60;2.40;;;20.60;27.00;;;;;;5022782;28;20249;-91
2021/09/18 13:42:26;;;;;;;2.47;2.20;;;20.60;28.20;;;;;;5044769;28;20623;-92
2021/09/18 13:45:11;;;;;;;2.40;2.20;;;20.60;27.90;;;;;;5016756;28;20222;-91
2021/09/18 13:47:38;;;;;;;2.75;2.55;;;20.50;26.70;;;;;;5032062;28;20226;-92
2021/09/18 13:58:14;;;;;;;3.70;1.88;;;20.10;28.10;;;;;;5030019;28;20238;-92
2021/09/18 14:00:44;;;;;;;2.20;2.00;;;19.80;28.00;;;;;;5020034;28;20278;-92
2021/09/18 14:03:11;;;;;;;2.55;2.00;;;19.70;28.90;;;;;;5037567;28;20238;-92
2021/09/18 14:05:42;;;;;;;2.53;2.10;;;19.50;28.70;;;;;;5046524;28;20219;-92
2021/09/18 14:08:10;;;;;;;2.20;1.80;;;19.30;28.80;;;;;;5036915;28;20230;-92
2021/09/18 14:10:38;;;;;;;2.42;2.00;;;19.40;31.60;;;;;;5018344;28;20287;-92
2021/09/18 14:13:05;;;;;;;2.00;1.90;;;19.40;31.10;;;;;;5038960;28;20269;-92
2021/09/18 14:15:32;;;;;;;2.20;2.00;;;19.30;31.50;;;;;;5044741;28;20218;-92
2021/09/18 14:18:03;;;;;;;2.20;2.00;;;19.20;31.40;;;;;;5041120;28;20276;-92
2021/09/18 14:20:30;;;;;;;2.22;2.10;;;19.40;31.60;;;;;;5037632;28;20206;-92
2021/09/18 14:22:57;;;;;;;1.85;1.75;;;19.60;29.40;;;;;;5021591;28;20234;-92